sensor_id;sensor_type;location;lat;lon;timestamp;pressure;altitude;pressure_sealevel;temperature;humidity
42859;BME280;28505;56.970;40.998;2023-03-18T00:03:54;101753.53;;;-7.96;100.00
42859;BME280;28505;56.970;40.998;2023-03-18T00:09:16;101762.94;;;-7.93;100.00
42859;BME280;28505;56.970;40.998;2023-03-18T00:14:39;101764.81;;;-7.95;100.00
42859;BME280;28505;56.970;40.998;2023-03-18T00:20:02;101766.81;;;-8.09;100.00
42859;BME280;28505;56.970;40.998;2023-03-18T00:25:27;101776.06;;;-8.05;100.00
42859;BME280;28505;56.970;40.998;2023-03-18T00:30:49;101776.44;;;-8.09;100.00
42859;BME280;28505;56.970;40.998;2023-03-18T00:36:13;101783.34;;;-8.08;100.00
42859;BME280;28505;56.970;40.998;2023-03-18T00:41:36;101790.84;;;-8.15;100.00
42859;BME280;28505;56.970;40.998;2023-03-18T00:46:58;101779.47;;;-8.14;100.00
42859;BME280;28505;56.970;40.998;2023-03-18T00:52:20;101793.72;;;-8.18;100.00
42859;BME280;28505;56.970;40.998;2023-03-18T00:57:42;101779.03;;;-8.51;100.00
42859;BME280;28505;56.970;40.998;2023-03-18T01:03:04;101801.25;;;-8.57;100.00
42859;BME280;28505;56.970;40.998;2023-03-18T01:08:27;101821.13;;;-8.54;100.00
42859;BME280;28505;56.970;40.998;2023-03-18T01:13:52;101830.75;;;-8.55;100.00
42859;BME280;28505;56.970;40.998;2023-03-18T01:19:14;101816.63;;;-8.63;100.00
42859;BME280;28505;56.970;40.998;2023-03-18T01:24:37;101810.34;;;-8.72;100.00
42859;BME280;28505;56.970;40.998;2023-03-18T01:30:01;101860.25;;;-8.64;100.00
42859;BME280;28505;56.970;40.998;2023-03-18T01:35:23;101859.06;;;-8.71;100.00
42859;BME280;28505;56.970;40.998;2023-03-18T01:40:47;101849.69;;;-8.96;100.00
42859;BME280;28505;56.970;40.998;2023-03-18T01:51:58;101869.53;;;-9.16;100.00
42859;BME280;28505;56.970;40.998;2023-03-18T01:57:22;101867.38;;;-9.22;100.00
42859;BME280;28505;56.970;40.998;2023-03-18T02:02:46;101880.69;;;-9.25;100.00
42859;BME280;28505;56.970;40.998;2023-03-18T02:08:09;101900.13;;;-9.40;100.00
42859;BME280;28505;56.970;40.998;2023-03-18T02:13:31;101909.75;;;-9.41;100.00
42859;BME280;28505;56.970;40.998;2023-03-18T02:18:55;101910.19;;;-9.47;100.00
42859;BME280;28505;56.970;40.998;2023-03-18T02:24:34;101913.44;;;-9.32;100.00
42859;BME280;28505;56.970;40.998;2023-03-18T02:30:30;101922.94;;;-9.31;100.00
42859;BME280;28505;56.970;40.998;2023-03-18T02:36:01;101931.25;;;-9.37;100.00
42859;BME280;28505;56.970;40.998;2023-03-18T02:41:29;101935.72;;;-9.51;100.00
42859;BME280;28505;56.970;40.998;2023-03-18T02:47:01;101936.63;;;-9.52;100.00
42859;BME280;28505;56.970;40.998;2023-03-18T02:52:24;101945.31;;;-9.51;100.00
42859;BME280;28505;56.970;40.998;2023-03-18T02:57:47;101931.91;;;-9.58;100.00
42859;BME280;28505;56.970;40.998;2023-03-18T03:03:10;101943.53;;;-9.51;100.00
42859;BME280;28505;56.970;40.998;2023-03-18T03:08:32;101939.16;;;-9.50;100.00
42859;BME280;28505;56.970;40.998;2023-03-18T03:13:57;101958.94;;;-9.24;100.00
42859;BME280;28505;56.970;40.998;2023-03-18T03:19:19;101968.56;;;-9.13;100.00
42859;BME280;28505;56.970;40.998;2023-03-18T03:24:42;101961.69;;;-9.03;100.00
42859;BME280;28505;56.970;40.998;2023-03-18T03:30:11;101970.38;;;-9.02;100.00
42859;BME280;28505;56.970;40.998;2023-03-18T03:35:36;101981.91;;;-8.93;100.00
42859;BME280;28505;56.970;40.998;2023-03-18T03:40:59;101962.41;;;-9.01;100.00
42859;BME280;28505;56.970;40.998;2023-03-18T03:46:21;101974.19;;;-8.84;100.00
42859;BME280;28505;56.970;40.998;2023-03-18T03:51:44;101957.22;;;-8.78;100.00
42859;BME280;28505;56.970;40.998;2023-03-18T03:57:07;101966.75;;;-8.66;100.00
42859;BME280;28505;56.970;40.998;2023-03-18T04:02:29;101985.28;;;-8.58;100.00
42859;BME280;28505;56.970;40.998;2023-03-18T04:07:53;101989.19;;;-8.52;100.00
42859;BME280;28505;56.970;40.998;2023-03-18T04:13:26;101990.38;;;-8.34;100.00
42859;BME280;28505;56.970;40.998;2023-03-18T04:18:49;101989.88;;;-8.16;100.00
42859;BME280;28505;56.970;40.998;2023-03-18T04:24:14;101994.72;;;-8.01;100.00
42859;BME280;28505;56.970;40.998;2023-03-18T04:29:38;101991.09;;;-7.77;100.00
42859;BME280;28505;56.970;40.998;2023-03-18T04:35:00;102004.69;;;-7.51;100.00
42859;BME280;28505;56.970;40.998;2023-03-18T04:40:23;102006.97;;;-7.25;100.00
42859;BME280;28505;56.970;40.998;2023-03-18T04:46:11;102023.59;;;-6.94;100.00
42859;BME280;28505;56.970;40.998;2023-03-18T04:51:36;102016.06;;;-6.67;100.00
42859;BME280;28505;56.970;40.998;2023-03-18T04:57:03;101998.41;;;-6.34;100.00
42859;BME280;28505;56.970;40.998;2023-03-18T05:02:41;102035.53;;;-5.79;100.00
42859;BME280;28505;56.970;40.998;2023-03-18T05:08:03;102033.66;;;-5.38;100.00
42859;BME280;28505;56.970;40.998;2023-03-18T05:13:26;102043.34;;;-4.90;100.00
42859;BME280;28505;56.970;40.998;2023-03-18T05:18:50;102039.13;;;-4.54;100.00
42859;BME280;28505;56.970;40.998;2023-03-18T05:24:18;102059.13;;;-3.96;100.00
42859;BME280;28505;56.970;40.998;2023-03-18T05:29:55;102039.09;;;-3.61;100.00
42859;BME280;28505;56.970;40.998;2023-03-18T05:35:45;102064.78;;;-2.92;100.00
42859;BME280;28505;56.970;40.998;2023-03-18T05:41:14;102069.81;;;-2.37;100.00
42859;BME280;28505;56.970;40.998;2023-03-18T05:46:42;102046.75;;;-1.92;100.00
42859;BME280;28505;56.970;40.998;2023-03-18T05:52:10;102062.91;;;-1.53;100.00
42859;BME280;28505;56.970;40.998;2023-03-18T05:57:40;102057.50;;;-1.27;100.00
42859;BME280;28505;56.970;40.998;2023-03-18T06:03:08;102057.84;;;-0.81;100.00
42859;BME280;28505;56.970;40.998;2023-03-18T06:08:31;102067.88;;;-0.35;100.00
42859;BME280;28505;56.970;40.998;2023-03-18T06:13:56;102076.22;;;0.01;100.00
42859;BME280;28505;56.970;40.998;2023-03-18T06:19:20;102068.88;;;0.42;100.00
42859;BME280;28505;56.970;40.998;2023-03-18T06:24:45;102094.63;;;0.96;100.00
42859;BME280;28505;56.970;40.998;2023-03-18T06:30:13;102073.38;;;0.96;100.00
42859;BME280;28505;56.970;40.998;2023-03-18T06:35:37;102070.16;;;1.01;100.00
42859;BME280;28505;56.970;40.998;2023-03-18T06:41:01;102083.97;;;1.19;100.00
42859;BME280;28505;56.970;40.998;2023-03-18T06:46:38;102111.09;;;1.52;100.00
42859;BME280;28505;56.970;40.998;2023-03-18T06:52:06;102087.41;;;1.43;100.00
42859;BME280;28505;56.970;40.998;2023-03-18T06:57:29;102110.28;;;1.67;100.00
42859;BME280;28505;56.970;40.998;2023-03-18T07:02:51;102134.91;;;1.83;100.00
42859;BME280;28505;56.970;40.998;2023-03-18T07:08:18;102120.28;;;1.79;100.00
42859;BME280;28505;56.970;40.998;2023-03-18T07:13:40;102132.44;;;1.97;100.00
42859;BME280;28505;56.970;40.998;2023-03-18T07:19:09;102127.47;;;2.08;100.00
42859;BME280;28505;56.970;40.998;2023-03-18T07:24:33;102123.97;;;2.23;100.00
42859;BME280;28505;56.970;40.998;2023-03-18T07:29:56;102120.94;;;2.41;100.00
42859;BME280;28505;56.970;40.998;2023-03-18T07:35:18;102131.63;;;2.62;100.00
42859;BME280;28505;56.970;40.998;2023-03-18T07:40:41;102147.78;;;2.61;100.00
42859;BME280;28505;56.970;40.998;2023-03-18T07:46:03;102139.19;;;2.58;100.00
42859;BME280;28505;56.970;40.998;2023-03-18T07:51:26;102137.50;;;2.72;100.00
42859;BME280;28505;56.970;40.998;2023-03-18T07:56:49;102140.53;;;2.69;98.67
42859;BME280;28505;56.970;40.998;2023-03-18T08:02:13;102139.88;;;2.67;100.00
42859;BME280;28505;56.970;40.998;2023-03-18T08:07:36;102142.16;;;2.70;100.00
42859;BME280;28505;56.970;40.998;2023-03-18T08:12:58;102150.44;;;2.61;97.83
42859;BME280;28505;56.970;40.998;2023-03-18T08:18:21;102143.44;;;2.74;100.00
42859;BME280;28505;56.970;40.998;2023-03-18T08:23:44;102149.63;;;2.75;97.54
42859;BME280;28505;56.970;40.998;2023-03-18T08:29:07;102130.81;;;2.62;96.77
42859;BME280;28505;56.970;40.998;2023-03-18T08:34:30;102143.81;;;2.71;91.39
42859;BME280;28505;56.970;40.998;2023-03-18T08:39:53;102126.84;;;2.72;90.33
42859;BME280;28505;56.970;40.998;2023-03-18T08:45:22;102114.28;;;2.66;91.85
42859;BME280;28505;56.970;40.998;2023-03-18T08:50:43;102122.78;;;2.76;83.91
42859;BME280;28505;56.970;40.998;2023-03-18T08:56:06;102103.47;;;2.53;89.85
42859;BME280;28505;56.970;40.998;2023-03-18T09:01:28;102097.25;;;2.67;87.14
42859;BME280;28505;56.970;40.998;2023-03-18T09:06:51;102096.19;;;2.62;86.47
42859;BME280;28505;56.970;40.998;2023-03-18T09:12:13;102107.81;;;2.75;85.19
42859;BME280;28505;56.970;40.998;2023-03-18T09:17:37;102109.38;;;2.70;81.13
42859;BME280;28505;56.970;40.998;2023-03-18T09:23:20;102090.69;;;2.48;79.40
42859;BME280;28505;56.970;40.998;2023-03-18T09:28:43;102080.53;;;2.52;80.87
42859;BME280;28505;56.970;40.998;2023-03-18T09:34:05;102083.56;;;2.49;80.68
42859;BME280;28505;56.970;40.998;2023-03-18T09:39:27;102085.84;;;2.52;82.92
42859;BME280;28505;56.970;40.998;2023-03-18T09:44:54;102093.13;;;2.65;81.42
42859;BME280;28505;56.970;40.998;2023-03-18T09:50:30;102092.31;;;2.64;82.17
42859;BME280;28505;56.970;40.998;2023-03-18T09:55:59;102088.53;;;2.73;76.09
42859;BME280;28505;56.970;40.998;2023-03-18T10:01:26;102070.25;;;2.70;77.11
42859;BME280;28505;56.970;40.998;2023-03-18T10:06:54;102081.28;;;2.67;74.14
42859;BME280;28505;56.970;40.998;2023-03-18T10:12:35;102052.13;;;2.59;72.30
42859;BME280;28505;56.970;40.998;2023-03-18T10:18:11;102067.88;;;2.75;76.25
42859;BME280;28505;56.970;40.998;2023-03-18T10:23:54;102061.63;;;2.90;76.19
42859;BME280;28505;56.970;40.998;2023-03-18T10:29:30;102053.91;;;2.95;73.00
42859;BME280;28505;56.970;40.998;2023-03-18T10:35:46;102053.91;;;2.95;73.23
42859;BME280;28505;56.970;40.998;2023-03-18T10:40:46;102052.31;;;3.00;72.67
42859;BME280;28505;56.970;40.998;2023-03-18T10:46:13;102049.13;;;3.12;70.77
42859;BME280;28505;56.970;40.998;2023-03-18T10:51:44;102052.25;;;3.15;70.56
42859;BME280;28505;56.970;40.998;2023-03-18T10:57:13;102051.00;;;3.11;69.35
42859;BME280;28505;56.970;40.998;2023-03-18T11:02:37;102049.47;;;3.02;70.40
42859;BME280;28505;56.970;40.998;2023-03-18T11:08:04;102038.00;;;3.01;69.02
42859;BME280;28505;56.970;40.998;2023-03-18T11:13:28;102012.44;;;2.86;68.88
42859;BME280;28505;56.970;40.998;2023-03-18T11:18:51;102035.28;;;2.95;66.14
42859;BME280;28505;56.970;40.998;2023-03-18T11:24:25;102017.88;;;2.99;68.77
42859;BME280;28505;56.970;40.998;2023-03-18T11:30:03;101983.63;;;2.74;67.63
42859;BME280;28505;56.970;40.998;2023-03-18T11:35:39;102010.78;;;2.85;66.04
42859;BME280;28505;56.970;40.998;2023-03-18T11:41:15;102015.31;;;2.91;66.71
42859;BME280;28505;56.970;40.998;2023-03-18T11:47:31;101975.97;;;2.65;65.61
42859;BME280;28505;56.970;40.998;2023-03-18T12:10:05;101981.50;;;2.85;64.49
42859;BME280;28505;56.970;40.998;2023-03-18T12:15:53;101949.28;;;2.79;65.23
42859;BME280;28505;56.970;40.998;2023-03-18T12:50:50;101956.66;;;2.56;66.21
42859;BME280;28505;56.970;40.998;2023-03-18T12:56:23;101944.16;;;2.35;65.79
42859;BME280;28505;56.970;40.998;2023-03-18T13:02:05;101945.84;;;2.21;68.21
42859;BME280;28505;56.970;40.998;2023-03-18T13:07:40;101944.22;;;2.20;68.83
42859;BME280;28505;56.970;40.998;2023-03-18T13:13:09;101948.53;;;2.21;70.55
42859;BME280;28505;56.970;40.998;2023-03-18T13:18:42;101932.38;;;2.23;72.29
42859;BME280;28505;56.970;40.998;2023-03-18T13:42:29;101927.22;;;2.21;72.73
42859;BME280;28505;56.970;40.998;2023-03-18T13:48:00;101920.38;;;2.12;73.61
42859;BME280;28505;56.970;40.998;2023-03-18T13:53:30;101914.81;;;2.07;75.57
42859;BME280;28505;56.970;40.998;2023-03-18T13:58:53;101899.09;;;1.91;74.04
42859;BME280;28505;56.970;40.998;2023-03-18T14:04:43;101907.97;;;1.83;73.48
42859;BME280;28505;56.970;40.998;2023-03-18T14:10:16;101903.63;;;1.75;74.25
42859;BME280;28505;56.970;40.998;2023-03-18T14:15:42;101897.25;;;1.55;74.93
42859;BME280;28505;56.970;40.998;2023-03-18T14:21:24;101894.88;;;1.30;75.23
42859;BME280;28505;56.970;40.998;2023-03-18T14:32:35;101900.91;;;0.94;75.87
42859;BME280;28505;56.970;40.998;2023-03-18T14:48:54;101860.25;;;0.27;75.99
42859;BME280;28505;56.970;40.998;2023-03-18T14:54:23;101915.88;;;0.35;76.22
42859;BME280;28505;56.970;40.998;2023-03-18T14:59:46;101914.81;;;0.21;76.91
42859;BME280;28505;56.970;40.998;2023-03-18T15:05:10;101893.47;;;-0.09;77.96
42859;BME280;28505;56.970;40.998;2023-03-18T15:10:35;101895.06;;;-0.22;77.90
42859;BME280;28505;56.970;40.998;2023-03-18T15:15:59;101887.53;;;-0.42;77.88
42859;BME280;28505;56.970;40.998;2023-03-18T15:21:28;101916.84;;;-0.43;79.09
42859;BME280;28505;56.970;40.998;2023-03-18T15:26:57;101920.03;;;-0.56;79.79
42859;BME280;28505;56.970;40.998;2023-03-18T15:32:28;101920.63;;;-0.77;81.82
42859;BME280;28505;56.970;40.998;2023-03-18T15:38:13;101916.72;;;-1.06;84.96
42859;BME280;28505;56.970;40.998;2023-03-18T15:43:42;101903.84;;;-1.33;86.29
42859;BME280;28505;56.970;40.998;2023-03-18T15:49:05;101908.66;;;-1.37;85.55
42859;BME280;28505;56.970;40.998;2023-03-18T15:54:37;101910.13;;;-1.43;85.55
42859;BME280;28505;56.970;40.998;2023-03-18T15:59:59;101907.16;;;-1.56;85.91
42859;BME280;28505;56.970;40.998;2023-03-18T16:05:32;101924.69;;;-1.47;84.96
42859;BME280;28505;56.970;40.998;2023-03-18T16:11:00;101908.50;;;-1.60;85.54
42859;BME280;28505;56.970;40.998;2023-03-18T16:16:27;101913.09;;;-1.70;86.99
42859;BME280;28505;56.970;40.998;2023-03-18T16:21:54;101932.59;;;-1.71;88.25
42859;BME280;28505;56.970;40.998;2023-03-18T16:27:39;101928.59;;;-2.00;91.11
42859;BME280;28505;56.970;40.998;2023-03-18T16:33:04;101914.69;;;-2.18;92.95
42859;BME280;28505;56.970;40.998;2023-03-18T16:38:34;101893.25;;;-2.57;93.48
42859;BME280;28505;56.970;40.998;2023-03-18T16:44:19;101904.59;;;-2.65;96.73
42859;BME280;28505;56.970;40.998;2023-03-18T16:49:42;101911.19;;;-2.69;98.33
42859;BME280;28505;56.970;40.998;2023-03-18T16:55:10;101911.06;;;-2.94;100.00
42859;BME280;28505;56.970;40.998;2023-03-18T17:00:35;101896.78;;;-3.09;100.00
42859;BME280;28505;56.970;40.998;2023-03-18T17:05:58;101900.88;;;-3.15;100.00
42859;BME280;28505;56.970;40.998;2023-03-18T17:11:21;101893.38;;;-3.27;100.00
42859;BME280;28505;56.970;40.998;2023-03-18T17:16:43;101907.06;;;-3.24;100.00
42859;BME280;28505;56.970;40.998;2023-03-18T17:22:19;101891.50;;;-3.35;100.00
42859;BME280;28505;56.970;40.998;2023-03-18T17:27:51;101890.78;;;-3.45;100.00
42859;BME280;28505;56.970;40.998;2023-03-18T17:33:20;101901.16;;;-3.44;100.00
42859;BME280;28505;56.970;40.998;2023-03-18T17:38:44;101897.13;;;-3.56;100.00
42859;BME280;28505;56.970;40.998;2023-03-18T17:44:23;101901.34;;;-3.63;100.00
42859;BME280;28505;56.970;40.998;2023-03-18T17:49:49;101890.94;;;-3.83;100.00
42859;BME280;28505;56.970;40.998;2023-03-18T17:55:20;101876.75;;;-4.08;100.00
42859;BME280;28505;56.970;40.998;2023-03-18T18:00:47;101873.88;;;-4.14;100.00
42859;BME280;28505;56.970;40.998;2023-03-18T18:06:21;101880.09;;;-4.15;100.00
42859;BME280;28505;56.970;40.998;2023-03-18T18:11:46;101896.06;;;-4.17;100.00
42859;BME280;28505;56.970;40.998;2023-03-18T18:17:19;101893.88;;;-4.21;100.00
42859;BME280;28505;56.970;40.998;2023-03-18T18:22:49;101892.97;;;-4.30;100.00
42859;BME280;28505;56.970;40.998;2023-03-18T18:28:20;101888.16;;;-4.35;100.00
42859;BME280;28505;56.970;40.998;2023-03-18T18:33:45;101875.88;;;-4.44;100.00
42859;BME280;28505;56.970;40.998;2023-03-18T18:39:14;101897.94;;;-4.27;100.00
42859;BME280;28505;56.970;40.998;2023-03-18T18:44:40;101855.94;;;-4.47;100.00
42859;BME280;28505;56.970;40.998;2023-03-18T18:50:15;101894.25;;;-4.34;100.00
42859;BME280;28505;56.970;40.998;2023-03-18T18:55:38;101886.78;;;-4.39;100.00
42859;BME280;28505;56.970;40.998;2023-03-18T19:01:00;101866.16;;;-4.71;100.00
42859;BME280;28505;56.970;40.998;2023-03-18T19:06:25;101862.50;;;-4.88;100.00
42859;BME280;28505;56.970;40.998;2023-03-18T19:11:48;101871.41;;;-4.99;100.00
42859;BME280;28505;56.970;40.998;2023-03-18T19:17:15;101874.78;;;-5.06;100.00
42859;BME280;28505;56.970;40.998;2023-03-18T19:22:38;101862.59;;;-5.17;100.00
42859;BME280;28505;56.970;40.998;2023-03-18T19:28:01;101859.16;;;-5.18;100.00
42859;BME280;28505;56.970;40.998;2023-03-18T19:33:23;101859.06;;;-5.26;100.00
42859;BME280;28505;56.970;40.998;2023-03-18T19:38:48;101851.84;;;-5.33;100.00
42859;BME280;28505;56.970;40.998;2023-03-18T19:44:16;101864.59;;;-5.29;100.00
42859;BME280;28505;56.970;40.998;2023-03-18T19:49:39;101855.91;;;-5.39;100.00
42859;BME280;28505;56.970;40.998;2023-03-18T19:55:04;101811.28;;;-5.68;100.00
42859;BME280;28505;56.970;40.998;2023-03-18T20:00:29;101814.31;;;-5.63;100.00
42859;BME280;28505;56.970;40.998;2023-03-18T20:05:52;101805.19;;;-5.59;100.00
42859;BME280;28505;56.970;40.998;2023-03-18T20:11:16;101811.38;;;-5.50;100.00
42859;BME280;28505;56.970;40.998;2023-03-18T20:16:38;101819.03;;;-5.76;100.00
42859;BME280;28505;56.970;40.998;2023-03-18T20:22:01;101809.94;;;-5.82;100.00
42859;BME280;28505;56.970;40.998;2023-03-18T20:27:24;101796.28;;;-5.95;100.00
42859;BME280;28505;56.970;40.998;2023-03-18T20:32:46;101776.69;;;-6.10;100.00
42859;BME280;28505;56.970;40.998;2023-03-18T20:43:35;101793.25;;;-6.39;100.00
42859;BME280;28505;56.970;40.998;2023-03-18T20:48:57;101784.84;;;-6.23;100.00
42859;BME280;28505;56.970;40.998;2023-03-18T20:54:27;101800.03;;;-6.17;100.00
42859;BME280;28505;56.970;40.998;2023-03-18T20:59:51;101791.47;;;-6.29;100.00
42859;BME280;28505;56.970;40.998;2023-03-18T21:05:13;101792.84;;;-6.25;100.00
42859;BME280;28505;56.970;40.998;2023-03-18T21:10:36;101779.03;;;-6.37;100.00
42859;BME280;28505;56.970;40.998;2023-03-18T21:15:59;101779.31;;;-6.40;100.00
42859;BME280;28505;56.970;40.998;2023-03-18T21:21:32;101798.38;;;-6.18;100.00
42859;BME280;28505;56.970;40.998;2023-03-18T21:26:55;101795.47;;;-6.25;100.00
42859;BME280;28505;56.970;40.998;2023-03-18T21:32:28;101795.88;;;-6.20;100.00
42859;BME280;28505;56.970;40.998;2023-03-18T21:37:52;101797.00;;;-6.13;100.00
42859;BME280;28505;56.970;40.998;2023-03-18T21:43:35;101799.34;;;-6.19;100.00
42859;BME280;28505;56.970;40.998;2023-03-18T21:48:57;101759.03;;;-6.38;100.00
42859;BME280;28505;56.970;40.998;2023-03-18T21:54:20;101778.63;;;-6.32;100.00
42859;BME280;28505;56.970;40.998;2023-03-18T21:59:44;101769.38;;;-6.36;100.00
42859;BME280;28505;56.970;40.998;2023-03-18T22:05:20;101767.16;;;-6.50;100.00
42859;BME280;28505;56.970;40.998;2023-03-18T22:10:44;101782.59;;;-6.67;100.00
42859;BME280;28505;56.970;40.998;2023-03-18T22:16:13;101785.31;;;-6.88;100.00
42859;BME280;28505;56.970;40.998;2023-03-18T22:21:36;101768.31;;;-7.03;100.00
42859;BME280;28505;56.970;40.998;2023-03-18T22:26:58;101794.84;;;-6.87;100.00
42859;BME280;28505;56.970;40.998;2023-03-18T22:32:39;101757.94;;;-7.04;100.00
42859;BME280;28505;56.970;40.998;2023-03-18T22:38:02;101780.31;;;-7.00;100.00
42859;BME280;28505;56.970;40.998;2023-03-18T22:43:31;101747.66;;;-7.27;100.00
42859;BME280;28505;56.970;40.998;2023-03-18T22:48:54;101743.34;;;-7.38;100.00
42859;BME280;28505;56.970;40.998;2023-03-18T22:54:19;101725.69;;;-7.45;100.00
42859;BME280;28505;56.970;40.998;2023-03-18T22:59:41;101755.56;;;-7.17;100.00
42859;BME280;28505;56.970;40.998;2023-03-18T23:05:03;101746.06;;;-7.18;100.00
42859;BME280;28505;56.970;40.998;2023-03-18T23:10:25;101756.69;;;-7.00;100.00
42859;BME280;28505;56.970;40.998;2023-03-18T23:15:48;101739.84;;;-7.08;100.00
42859;BME280;28505;56.970;40.998;2023-03-18T23:21:19;101736.53;;;-7.10;100.00
42859;BME280;28505;56.970;40.998;2023-03-18T23:26:42;101745.25;;;-7.09;100.00
42859;BME280;28505;56.970;40.998;2023-03-18T23:32:04;101752.41;;;-7.11;100.00
42859;BME280;28505;56.970;40.998;2023-03-18T23:37:26;101738.41;;;-7.31;100.00
42859;BME280;28505;56.970;40.998;2023-03-18T23:42:48;101741.44;;;-7.36;100.00
42859;BME280;28505;56.970;40.998;2023-03-18T23:48:10;101695.31;;;-7.58;100.00
42859;BME280;28505;56.970;40.998;2023-03-18T23:53:32;101695.47;;;-7.49;100.00
42859;BME280;28505;56.970;40.998;2023-03-18T23:58:55;101668.94;;;-7.25;100.00
